createdAt,value
2019-04-14T00:01:41.244Z,32.30
2019-04-14T00:04:24.721Z,31.60
2019-04-14T00:06:59.142Z,29.27
2019-04-14T00:09:35.799Z,32.17
2019-04-14T00:12:16.813Z,30.83
2019-04-14T00:14:46.933Z,31.20
2019-04-14T00:17:30.639Z,31.23
2019-04-14T00:20:00.984Z,34.77
2019-04-14T00:22:32.227Z,31.23
2019-04-14T00:28:42.551Z,28.77
2019-04-14T00:31:13.040Z,30.80
2019-04-14T00:33:43.250Z,29.60
2019-04-14T00:36:28.391Z,30.43
2019-04-14T00:38:59.406Z,29.87
2019-04-14T00:41:51.905Z,28.00
2019-04-14T00:44:49.584Z,28.10
2019-04-14T00:47:28.911Z,28.77
2019-04-14T00:53:29.557Z,32.57
2019-04-14T00:56:01.870Z,31.27
2019-04-14T00:58:32.194Z,32.20
2019-04-14T01:01:05.061Z,33.67
2019-04-14T01:03:56.969Z,30.00
2019-04-14T01:06:27.314Z,30.00
2019-04-14T01:08:57.558Z,28.00
2019-04-14T01:11:27.110Z,31.17
2019-04-14T01:14:21.269Z,29.13
2019-04-14T01:16:56.353Z,29.50
2019-04-14T01:19:26.634Z,32.40
2019-04-14T01:22:05.361Z,31.87
2019-04-14T01:24:38.695Z,32.53
2019-04-14T01:27:23.700Z,31.13
2019-04-14T01:30:01.325Z,31.60
2019-04-14T01:32:35.124Z,32.93
2019-04-14T01:35:24.967Z,29.73
2019-04-14T01:38:07.999Z,33.27
2019-04-14T01:40:40.234Z,30.27
2019-04-14T01:43:10.274Z,29.80
2019-04-14T01:45:40.288Z,32.07
2019-04-14T01:48:45.502Z,30.60
2019-04-14T01:52:05.689Z,30.57
2019-04-14T01:58:16.411Z,29.17
2019-04-14T02:01:13.071Z,29.47
2019-04-14T02:04:00.597Z,29.50
2019-04-14T02:06:37.622Z,28.80
2019-04-14T02:09:12.096Z,29.40
2019-04-14T02:11:44.558Z,30.33
2019-04-14T02:14:21.205Z,32.30
2019-04-14T02:16:56.063Z,31.77
2019-04-14T02:19:28.487Z,29.07
2019-04-14T02:21:58.753Z,32.60
2019-04-14T02:24:28.883Z,29.53
2019-04-14T02:27:05.566Z,28.33
2019-04-14T02:29:38.276Z,30.70
2019-04-14T02:32:33.086Z,30.63
2019-04-14T02:37:58.415Z,29.17
2019-04-14T02:40:37.030Z,31.90
2019-04-14T02:43:25.420Z,32.07
2019-04-14T02:46:07.859Z,28.93
2019-04-14T02:48:36.198Z,31.10
2019-04-14T02:50:55.869Z,31.00
2019-04-14T02:53:37.003Z,31.60
2019-04-14T02:56:48.289Z,30.83
2019-04-14T03:01:14.784Z,32.70
2019-04-14T03:03:41.489Z,31.57
2019-04-14T03:13:45.064Z,33.13
2019-04-14T03:19:06.445Z,28.17
2019-04-14T03:21:41.974Z,31.17
2019-04-14T03:24:33.678Z,27.63
2019-04-14T03:27:13.582Z,30.20
2019-04-14T03:29:50.067Z,29.50
2019-04-14T03:32:35.945Z,28.40
2019-04-14T03:38:11.359Z,28.93
2019-04-14T03:39:52.029Z,27.37
2019-04-14T03:42:31.798Z,27.03
2019-04-14T03:44:56.493Z,30.10
2019-04-14T03:47:25.579Z,27.30
2019-04-14T03:52:39.774Z,30.17
2019-04-14T03:54:58.391Z,28.60
2019-04-14T03:57:14.939Z,28.30
2019-04-14T04:03:32.403Z,32.77
2019-04-14T04:06:05.269Z,31.10
2019-04-14T04:08:36.088Z,31.47
2019-04-14T04:11:08.635Z,29.57
2019-04-14T04:13:39.707Z,31.80
2019-04-14T04:16:18.075Z,34.30
2019-04-14T04:19:40.426Z,31.57
2019-04-14T04:26:04.019Z,32.90
2019-04-14T04:28:54.552Z,30.83
2019-04-14T04:31:56.842Z,27.70
2019-04-14T04:34:57.719Z,31.10
2019-04-14T04:37:52.045Z,32.63
2019-04-14T04:40:50.751Z,28.83
2019-04-14T04:43:41.435Z,33.63
2019-04-14T04:46:34.897Z,33.07
2019-04-14T04:49:34.558Z,31.00
2019-04-14T04:52:04.201Z,31.00
2019-04-14T04:54:38.478Z,33.83
2019-04-14T04:57:11.266Z,32.90
2019-04-14T04:59:43.780Z,34.50
2019-04-14T05:02:13.468Z,36.30
2019-04-14T05:05:05.572Z,34.70
2019-04-14T05:07:36.188Z,32.77
2019-04-14T05:10:24.152Z,29.83
2019-04-14T05:13:18.411Z,32.33
2019-04-14T05:15:57.479Z,29.13
2019-04-14T05:18:29.754Z,31.47
2019-04-14T05:20:59.630Z,33.10
2019-04-14T05:23:29.940Z,33.07
2019-04-14T05:26:00.590Z,31.80
2019-04-14T05:28:35.306Z,31.40
2019-04-14T05:31:30.549Z,32.27
2019-04-14T05:34:04.303Z,33.40
2019-04-14T05:36:38.851Z,32.27
2019-04-14T05:39:09.023Z,35.23
2019-04-14T05:41:55.003Z,31.00
2019-04-14T05:44:16.483Z,31.90
2019-04-14T05:46:47.000Z,31.90
2019-04-14T05:49:30.438Z,33.97
2019-04-14T05:51:56.577Z,32.00
2019-04-14T05:54:30.092Z,34.70
2019-04-14T05:57:02.214Z,32.30
2019-04-14T05:59:36.013Z,31.13
2019-04-14T06:02:07.283Z,31.23
2019-04-14T06:04:38.222Z,29.07
2019-04-14T06:07:12.726Z,33.70
2019-04-14T06:09:46.713Z,35.30
2019-04-14T06:12:25.686Z,34.00
2019-04-14T06:14:55.410Z,30.20
2019-04-14T06:17:25.020Z,31.23
2019-04-14T06:19:57.617Z,31.73
2019-04-14T06:22:27.886Z,28.93
2019-04-14T06:25:08.951Z,32.87
2019-04-14T06:27:38.323Z,33.63
2019-04-14T06:30:33.864Z,35.77
2019-04-14T06:33:09.884Z,31.17
2019-04-14T06:36:16.191Z,32.03
2019-04-14T06:38:47.520Z,31.90
2019-04-14T06:41:18.983Z,32.70
2019-04-14T06:43:49.420Z,31.87
2019-04-14T06:46:18.832Z,31.20
2019-04-14T06:48:48.340Z,30.33
2019-04-14T06:51:17.688Z,35.47
2019-04-14T06:53:47.073Z,35.07
2019-04-14T06:56:16.391Z,29.33
2019-04-14T06:58:46.950Z,34.63
2019-04-14T07:01:16.227Z,32.27
2019-04-14T07:03:45.535Z,29.40
2019-04-14T07:06:14.897Z,31.93
2019-04-14T07:08:44.211Z,28.17
2019-04-14T07:11:13.543Z,28.13
2019-04-14T07:13:42.840Z,30.33
2019-04-14T07:16:12.180Z,35.37
2019-04-14T07:18:41.542Z,29.83
2019-04-14T07:21:10.950Z,31.70
2019-04-14T07:23:40.330Z,31.03
2019-04-14T07:26:10.119Z,28.83
2019-04-14T07:28:39.471Z,31.40
2019-04-14T07:31:26.764Z,33.97
2019-04-14T07:34:07.420Z,33.83
2019-04-14T07:39:46.990Z,33.23
2019-04-14T07:42:27.940Z,35.00
2019-04-14T07:45:08.316Z,35.17
2019-04-14T07:47:49.632Z,31.80
2019-04-14T07:50:43.779Z,33.60
2019-04-14T07:53:25.712Z,32.03
2019-04-14T07:56:06.137Z,32.97
2019-04-14T07:59:00.409Z,33.03
2019-04-14T08:01:42.420Z,34.30
2019-04-14T08:04:33.797Z,33.57
2019-04-14T08:07:03.113Z,34.13
2019-04-14T08:09:32.430Z,37.73
2019-04-14T08:12:01.774Z,34.40
2019-04-14T08:14:31.091Z,32.03
2019-04-14T08:17:00.476Z,34.60
2019-04-14T08:19:33.275Z,32.87
2019-04-14T08:22:02.605Z,31.47
2019-04-14T08:24:31.937Z,35.00
2019-04-14T08:27:01.256Z,33.63
2019-04-14T08:29:30.594Z,32.40
2019-04-14T08:32:00.011Z,35.30
2019-04-14T08:34:29.379Z,33.27
2019-04-14T08:36:58.741Z,35.03
2019-04-14T08:39:28.075Z,35.50
2019-04-14T08:42:15.859Z,35.70
2019-04-14T08:44:47.719Z,34.10
2019-04-14T08:47:39.228Z,39.03
2019-04-14T08:50:38.943Z,36.37
2019-04-14T08:53:03.215Z,34.30
2019-04-14T08:55:45.107Z,34.33
2019-04-14T08:58:39.619Z,33.57
2019-04-14T09:01:33.428Z,33.13
2019-04-14T09:04:30.642Z,32.60
2019-04-14T09:07:09.339Z,35.97
2019-04-14T09:09:47.719Z,35.23
2019-04-14T09:12:20.583Z,31.83
2019-04-14T09:14:56.885Z,31.90
2019-04-14T09:17:21.103Z,34.57
2019-04-14T09:19:50.525Z,33.60
2019-04-14T09:22:19.811Z,35.10
2019-04-14T09:24:49.145Z,33.00
2019-04-14T09:27:18.568Z,34.23
2019-04-14T09:29:48.006Z,31.23
2019-04-14T09:32:17.552Z,30.83
2019-04-14T09:34:46.927Z,33.50
2019-04-14T09:37:16.251Z,34.77
2019-04-14T09:39:45.686Z,31.50
2019-04-14T09:42:15.004Z,31.30
2019-04-14T09:44:44.412Z,33.27
2019-04-14T09:47:13.838Z,31.63
2019-04-14T09:49:43.802Z,31.67
2019-04-14T09:52:13.132Z,32.00
2019-04-14T09:54:42.509Z,31.10
2019-04-14T09:57:12.400Z,32.20
2019-04-14T09:59:41.706Z,32.87
2019-04-14T10:02:11.071Z,33.97
2019-04-14T10:04:40.479Z,34.93
2019-04-14T10:07:09.832Z,36.00
2019-04-14T10:09:39.241Z,34.90
2019-04-14T10:12:08.624Z,35.63
2019-04-14T10:14:38.005Z,32.47
2019-04-14T10:17:07.344Z,32.00
2019-04-14T10:19:36.679Z,33.10
2019-04-14T10:22:06.017Z,29.73
2019-04-14T10:24:35.349Z,30.67
2019-04-14T10:27:04.789Z,32.63
2019-04-14T10:29:34.152Z,31.60
2019-04-14T10:32:03.486Z,31.10
2019-04-14T10:34:32.827Z,31.13
2019-04-14T10:37:02.125Z,28.40
2019-04-14T10:39:31.518Z,30.60
2019-04-14T10:42:00.856Z,28.63
2019-04-14T10:44:30.295Z,31.53
2019-04-14T10:46:59.627Z,29.80
2019-04-14T10:49:28.959Z,30.10
2019-04-14T10:51:58.328Z,28.33
2019-04-14T10:54:27.688Z,27.03
2019-04-14T10:56:57.031Z,30.60
2019-04-14T10:59:28.895Z,32.17
2019-04-14T11:01:58.437Z,28.33
2019-04-14T11:04:27.903Z,31.03
2019-04-14T11:07:01.594Z,29.77
2019-04-14T11:09:30.979Z,30.27
2019-04-14T11:12:00.484Z,27.57
2019-04-14T11:14:29.856Z,29.93
2019-04-14T11:16:59.142Z,30.77
2019-04-14T11:19:28.544Z,31.73
2019-04-14T11:21:57.812Z,29.43
2019-04-14T11:24:27.128Z,31.70
2019-04-14T11:26:56.545Z,31.50
2019-04-14T11:29:25.868Z,31.53
2019-04-14T11:32:12.763Z,32.07
2019-04-14T11:34:48.010Z,34.20
2019-04-14T11:37:37.519Z,31.60
2019-04-14T11:40:09.398Z,31.50
2019-04-14T11:42:38.771Z,32.80
2019-04-14T11:45:08.187Z,33.43
2019-04-14T11:47:37.521Z,33.27
2019-04-14T11:50:07.172Z,33.40
2019-04-14T11:52:36.528Z,31.60
2019-04-14T11:55:05.962Z,31.57
2019-04-14T11:57:35.248Z,30.13
2019-04-14T12:00:21.195Z,28.00
2019-04-14T12:03:09.431Z,30.30
2019-04-14T12:05:56.714Z,28.93
2019-04-14T12:08:33.565Z,29.30
2019-04-14T12:11:02.934Z,30.83
2019-04-14T12:13:32.345Z,31.47
2019-04-14T12:16:01.644Z,29.50
2019-04-14T12:18:30.972Z,29.97
2019-04-14T12:21:00.286Z,29.60
2019-04-14T12:23:29.644Z,31.03
2019-04-14T12:26:05.338Z,32.37
2019-04-14T12:28:30.395Z,31.77
2019-04-14T12:30:59.917Z,30.03
2019-04-14T12:33:29.294Z,28.80
2019-04-14T12:35:58.628Z,29.80
2019-04-14T12:38:27.983Z,31.13
2019-04-14T12:40:58.943Z,31.77
2019-04-14T12:43:47.447Z,30.80
2019-04-14T12:46:51.100Z,28.30
2019-04-14T12:49:30.775Z,31.33
2019-04-14T12:52:21.437Z,29.20
2019-04-14T12:54:48.038Z,29.60
2019-04-14T12:57:20.969Z,28.90
2019-04-14T12:59:50.307Z,27.93
2019-04-14T13:02:31.667Z,28.70
2019-04-14T13:05:01.022Z,25.97
2019-04-14T13:07:30.384Z,26.40
2019-04-14T13:09:59.836Z,25.67
2019-04-14T13:12:29.198Z,24.47
2019-04-14T13:14:58.572Z,23.33
2019-04-14T13:17:27.919Z,22.30
2019-04-14T13:19:57.734Z,22.93
2019-04-14T13:22:33.822Z,22.17
2019-04-14T13:24:58.172Z,20.80
2019-04-14T13:27:27.484Z,21.27
2019-04-14T13:29:56.940Z,18.60
2019-04-14T13:32:35.982Z,18.67
2019-04-14T13:34:57.363Z,17.03
2019-04-14T13:37:26.684Z,17.27
2019-04-14T13:39:56.046Z,18.90
2019-04-14T13:42:25.446Z,16.53
2019-04-14T13:44:54.856Z,16.13
2019-04-14T13:47:24.247Z,18.27
2019-04-14T13:49:53.618Z,16.23
2019-04-14T13:52:22.938Z,16.27
2019-04-14T13:54:52.399Z,16.57
2019-04-14T13:57:21.712Z,16.13
2019-04-14T13:59:51.055Z,17.20
2019-04-14T14:02:20.403Z,18.33
2019-04-14T14:04:49.806Z,17.67
2019-04-14T14:07:19.180Z,15.07
2019-04-14T14:09:48.601Z,17.47
2019-04-14T14:12:38.413Z,17.13
2019-04-14T14:15:32.422Z,17.20
2019-04-14T14:18:26.807Z,16.97
2019-04-14T14:21:17.859Z,16.70
2019-04-14T14:24:11.949Z,16.00
2019-04-14T14:26:41.883Z,17.27
2019-04-14T14:29:11.288Z,17.63
2019-04-14T14:31:40.763Z,18.63
2019-04-14T14:34:11.103Z,17.23
2019-04-14T14:36:40.579Z,17.70
2019-04-14T14:39:10.578Z,18.33
2019-04-14T14:41:40.135Z,16.80
2019-04-14T14:44:09.766Z,17.40
2019-04-14T14:46:45.406Z,18.20
2019-04-14T14:49:25.139Z,17.37
2019-04-14T14:51:58.243Z,17.50
2019-04-14T14:54:27.573Z,16.17
2019-04-14T14:56:56.932Z,16.87
2019-04-14T14:59:26.237Z,17.90
2019-04-14T15:01:55.585Z,17.13
2019-04-14T15:04:24.868Z,18.83
2019-04-14T15:06:54.224Z,17.20
2019-04-14T15:09:23.524Z,17.57
2019-04-14T15:11:52.854Z,16.83
2019-04-14T15:14:22.146Z,16.93
2019-04-14T15:16:51.667Z,15.80
2019-04-14T15:19:20.965Z,16.60
2019-04-14T15:21:50.314Z,18.00
2019-04-14T15:24:19.633Z,16.87
2019-04-14T15:26:48.985Z,17.30
2019-04-14T15:29:18.345Z,16.87
2019-04-14T15:31:47.661Z,17.27
2019-04-14T15:34:16.932Z,15.77
2019-04-14T15:36:46.227Z,16.97
2019-04-14T15:39:16.124Z,17.63
2019-04-14T15:41:45.475Z,16.33
2019-04-14T15:44:14.809Z,16.17
2019-04-14T15:46:44.167Z,15.90
2019-04-14T15:49:13.450Z,15.83
2019-04-14T15:51:42.782Z,19.00
2019-04-14T15:54:12.206Z,17.33
2019-04-14T15:57:03.789Z,16.93
2019-04-14T15:59:48.536Z,17.63
2019-04-14T16:02:48.859Z,16.00
2019-04-14T16:05:46.197Z,16.03
2019-04-14T16:08:20.269Z,16.63
2019-04-14T16:10:56.657Z,15.27
2019-04-14T16:13:48.011Z,16.67
2019-04-14T16:16:25.311Z,17.57
2019-04-14T16:18:58.593Z,16.03
2019-04-14T16:21:28.836Z,16.07
2019-04-14T16:23:58.752Z,16.13
2019-04-14T16:26:56.062Z,18.17
2019-04-14T16:29:33.222Z,16.53
2019-04-14T16:32:31.818Z,14.63
2019-04-14T16:35:08.807Z,17.07
2019-04-14T16:37:40.592Z,16.33
2019-04-14T16:40:10.995Z,17.57
2019-04-14T16:42:40.566Z,16.23
2019-04-14T16:45:10.757Z,15.20
2019-04-14T16:47:42.369Z,14.87
2019-04-14T16:50:12.169Z,17.00
2019-04-14T16:52:57.949Z,16.60
2019-04-14T16:55:46.334Z,14.57
2019-04-14T16:58:34.848Z,15.10
2019-04-14T17:01:23.492Z,13.33
2019-04-14T17:03:53.032Z,16.60
2019-04-14T17:06:25.692Z,14.67
2019-04-14T17:08:58.255Z,14.20
2019-04-14T17:11:27.870Z,15.37
2019-04-14T17:14:25.493Z,15.37
2019-04-14T17:17:20.205Z,13.90
2019-04-14T17:20:07.385Z,15.03
2019-04-14T17:22:58.834Z,14.77
2019-04-14T17:25:43.214Z,15.57
2019-04-14T17:28:21.858Z,13.80
2019-04-14T17:30:58.761Z,14.90
2019-04-14T17:33:55.009Z,15.17
2019-04-14T17:36:34.483Z,13.77
2019-04-14T17:39:41.456Z,14.10
2019-04-14T17:42:39.234Z,15.50
2019-04-14T17:45:25.173Z,14.53
2019-04-14T17:48:02.557Z,12.60
2019-04-14T17:50:41.240Z,12.90
2019-04-14T17:53:17.184Z,13.70
2019-04-14T17:56:04.668Z,11.40
2019-04-14T17:58:41.348Z,12.07
2019-04-14T18:01:39.195Z,11.53
2019-04-14T18:04:31.880Z,12.67
2019-04-14T18:07:06.712Z,13.37
2019-04-14T18:10:02.899Z,12.20
2019-04-14T18:12:36.270Z,13.20
2019-04-14T18:15:21.483Z,11.43
2019-04-14T18:18:09.903Z,11.80
2019-04-14T18:20:45.484Z,11.60
2019-04-14T18:23:17.666Z,12.23
2019-04-14T18:25:47.052Z,12.00
2019-04-14T18:28:25.242Z,12.80
2019-04-14T18:31:03.256Z,11.73
2019-04-14T18:33:44.449Z,10.73
2019-04-14T18:36:39.630Z,12.00
2019-04-14T18:39:43.747Z,12.87
2019-04-14T18:42:32.020Z,11.93
2019-04-14T18:45:36.479Z,12.73
2019-04-14T18:48:20.699Z,11.93
2019-04-14T18:51:08.233Z,13.20
2019-04-14T18:53:52.615Z,11.80
2019-04-14T18:56:40.368Z,12.73
2019-04-14T18:59:28.859Z,12.90
2019-04-14T19:01:58.318Z,12.97
2019-04-14T19:04:28.463Z,13.83
2019-04-14T19:06:58.406Z,12.63
2019-04-14T19:09:38.365Z,14.43
2019-04-14T19:12:25.625Z,13.53
2019-04-14T19:15:01.671Z,14.80
2019-04-14T19:17:50.291Z,13.00
2019-04-14T19:20:21.312Z,13.27
2019-04-14T19:22:50.783Z,13.27
2019-04-14T19:25:20.346Z,14.20
2019-04-14T19:27:49.770Z,12.90
2019-04-14T19:30:22.514Z,13.50
2019-04-14T19:32:55.446Z,13.17
2019-04-14T19:35:26.859Z,12.97
2019-04-14T19:37:56.283Z,13.73
2019-04-14T19:40:25.715Z,13.37
2019-04-14T19:42:55.147Z,13.37
2019-04-14T19:45:24.759Z,13.20
2019-04-14T19:47:57.493Z,13.10
2019-04-14T19:50:26.896Z,14.20
2019-04-14T19:52:56.510Z,12.00
2019-04-14T19:55:26.608Z,12.27
2019-04-14T19:57:56.035Z,14.00
2019-04-14T20:00:25.449Z,13.40
2019-04-14T20:02:54.928Z,13.33
2019-04-14T20:05:24.289Z,13.37
2019-04-14T20:07:53.865Z,13.43
2019-04-14T20:10:23.457Z,13.70
2019-04-14T20:12:52.799Z,12.77
2019-04-14T20:15:31.315Z,13.50
2019-04-14T20:18:11.182Z,13.70
2019-04-14T20:21:09.115Z,12.73
2019-04-14T20:24:01.841Z,12.80
2019-04-14T20:26:49.396Z,13.93
2019-04-14T20:29:26.702Z,14.37
2019-04-14T20:32:05.619Z,12.87
2019-04-14T20:34:35.909Z,15.40
2019-04-14T20:37:05.781Z,11.70
2019-04-14T20:39:36.105Z,14.13
2019-04-14T20:42:07.085Z,13.50
2019-04-14T20:44:37.295Z,12.17
2019-04-14T20:47:08.983Z,12.83
2019-04-14T20:49:39.403Z,13.17
2019-04-14T20:52:09.155Z,12.00
2019-04-14T20:54:39.669Z,11.90
2019-04-14T20:57:09.810Z,12.13
2019-04-14T20:59:39.887Z,13.70
2019-04-14T21:02:46.632Z,14.27
2019-04-14T21:05:26.619Z,13.40
2019-04-14T21:08:15.039Z,15.00
2019-04-14T21:11:01.673Z,12.80
2019-04-14T21:13:39.748Z,12.67
2019-04-14T21:16:17.373Z,12.67
2019-04-14T21:18:52.173Z,13.37
2019-04-14T21:21:40.203Z,11.90
2019-04-14T21:24:27.602Z,11.90
2019-04-14T21:27:14.869Z,12.20
2019-04-14T21:30:10.609Z,14.03
2019-04-14T21:32:44.777Z,12.73
2019-04-14T21:35:35.934Z,14.27
2019-04-14T21:38:16.756Z,13.50
2019-04-14T21:40:58.678Z,14.03
2019-04-14T21:43:28.091Z,14.47
2019-04-14T21:45:57.421Z,13.50
2019-04-14T21:48:26.740Z,13.93
2019-04-14T21:50:56.122Z,13.83
2019-04-14T21:53:25.536Z,13.57
2019-04-14T21:55:54.920Z,13.70
2019-04-14T21:58:43.162Z,14.80
2019-04-14T22:01:53.037Z,13.90
2019-04-14T22:04:45.844Z,14.23
2019-04-14T22:07:36.230Z,13.20
2019-04-14T22:10:29.772Z,13.40
2019-04-14T22:12:59.068Z,13.17
2019-04-14T22:15:28.357Z,12.27
2019-04-14T22:17:57.843Z,12.67
2019-04-14T22:20:27.194Z,11.73
2019-04-14T22:22:56.559Z,12.50
2019-04-14T22:25:25.963Z,13.27
2019-04-14T22:27:55.265Z,13.83
2019-04-14T22:30:24.660Z,11.70
2019-04-14T22:32:53.973Z,12.17
2019-04-14T22:35:23.328Z,12.93
2019-04-14T22:37:52.693Z,12.30
2019-04-14T22:40:22.073Z,12.33
2019-04-14T22:42:51.398Z,10.80
2019-04-14T22:45:20.911Z,11.87
2019-04-14T22:47:50.381Z,11.20
2019-04-14T22:50:19.694Z,11.23
2019-04-14T22:52:49.014Z,12.97
2019-04-14T22:55:18.293Z,13.47
2019-04-14T22:57:47.625Z,13.87
2019-04-14T23:00:36.983Z,11.47
2019-04-14T23:03:20.687Z,12.90
2019-04-14T23:06:04.414Z,11.00
2019-04-14T23:08:53.003Z,11.93
2019-04-14T23:11:37.662Z,13.60
2019-04-14T23:14:34.987Z,12.87
2019-04-14T23:17:35.080Z,13.67
2019-04-14T23:20:30.696Z,12.57
2019-04-14T23:23:18.433Z,14.17
2019-04-14T23:25:48.192Z,10.90
2019-04-14T23:28:17.471Z,11.23
2019-04-14T23:30:46.788Z,12.67
2019-04-14T23:33:16.078Z,11.40
2019-04-14T23:35:45.391Z,11.80
2019-04-14T23:38:14.908Z,11.97
2019-04-14T23:40:44.333Z,12.37
2019-04-14T23:43:13.735Z,11.77
2019-04-14T23:45:43.034Z,11.43
2019-04-14T23:48:12.444Z,12.17
2019-04-14T23:50:41.754Z,11.53
2019-04-14T23:53:11.108Z,10.77
2019-04-14T23:55:40.421Z,12.30
2019-04-14T23:58:09.913Z,11.73
